sensor_id;sensor_type;location;lat;lon;timestamp;pressure;altitude;pressure_sealevel;temperature;humidity
10366;BME280;5229;41.820;23.490;2022-09-28T00:01:31;89248.81;;;14.58;76.80
10366;BME280;5229;41.820;23.490;2022-09-28T00:03:59;89240.56;;;14.56;76.68
10366;BME280;5229;41.820;23.490;2022-09-28T00:06:28;89245.03;;;14.56;76.74
10366;BME280;5229;41.820;23.490;2022-09-28T00:08:56;89242.00;;;14.54;76.82
10366;BME280;5229;41.820;23.490;2022-09-28T00:11:23;89240.91;;;14.55;77.01
10366;BME280;5229;41.820;23.490;2022-09-28T00:13:53;89233.97;;;14.62;77.27
10366;BME280;5229;41.820;23.490;2022-09-28T00:16:22;89228.81;;;14.66;77.22
10366;BME280;5229;41.820;23.490;2022-09-28T00:18:49;89230.38;;;14.70;76.70
10366;BME280;5229;41.820;23.490;2022-09-28T00:21:19;89228.94;;;14.73;76.68
10366;BME280;5229;41.820;23.490;2022-09-28T00:23:47;89228.19;;;14.73;76.63
10366;BME280;5229;41.820;23.490;2022-09-28T00:26:34;89225.50;;;14.69;76.75
10366;BME280;5229;41.820;23.490;2022-09-28T00:29:01;89224.00;;;14.68;76.54
10366;BME280;5229;41.820;23.490;2022-09-28T00:31:30;89232.94;;;14.67;76.62
10366;BME280;5229;41.820;23.490;2022-09-28T00:33:57;89226.97;;;14.66;76.76
10366;BME280;5229;41.820;23.490;2022-09-28T00:36:26;89220.97;;;14.66;76.43
10366;BME280;5229;41.820;23.490;2022-09-28T00:38:54;89230.59;;;14.62;76.47
10366;BME280;5229;41.820;23.490;2022-09-28T00:41:22;89225.25;;;14.55;76.50
10366;BME280;5229;41.820;23.490;2022-09-28T00:43:49;89239.69;;;14.49;76.43
10366;BME280;5229;41.820;23.490;2022-09-28T00:46:20;89232.56;;;14.46;76.21
10366;BME280;5229;41.820;23.490;2022-09-28T00:48:51;89237.34;;;14.44;76.58
10366;BME280;5229;41.820;23.490;2022-09-28T00:51:21;89229.88;;;14.42;76.63
10366;BME280;5229;41.820;23.490;2022-09-28T00:53:52;89232.91;;;14.44;76.56
10366;BME280;5229;41.820;23.490;2022-09-28T00:56:24;89219.50;;;14.46;76.41
10366;BME280;5229;41.820;23.490;2022-09-28T00:58:53;89218.00;;;14.45;76.59
10366;BME280;5229;41.820;23.490;2022-09-28T01:01:21;89215.41;;;14.45;76.65
10366;BME280;5229;41.820;23.490;2022-09-28T01:03:48;89218.00;;;14.45;76.67
10366;BME280;5229;41.820;23.490;2022-09-28T01:06:18;89216.56;;;14.47;76.55
10366;BME280;5229;41.820;23.490;2022-09-28T01:08:47;89217.28;;;14.48;76.68
10366;BME280;5229;41.820;23.490;2022-09-28T01:11:18;89225.53;;;14.50;76.52
10366;BME280;5229;41.820;23.490;2022-09-28T01:13:45;89225.53;;;14.50;76.48
10366;BME280;5229;41.820;23.490;2022-09-28T01:16:20;89219.63;;;14.53;76.88
10366;BME280;5229;41.820;23.490;2022-09-28T01:18:58;89220.47;;;14.57;76.34
10366;BME280;5229;41.820;23.490;2022-09-28T01:21:28;89217.56;;;14.62;76.13
10366;BME280;5229;41.820;23.490;2022-09-28T01:24:18;89209.72;;;14.62;75.95
10366;BME280;5229;41.820;23.490;2022-09-28T01:26:58;89214.69;;;14.67;76.50
10366;BME280;5229;41.820;23.490;2022-09-28T01:29:35;89215.16;;;14.73;75.89
10366;BME280;5229;41.820;23.490;2022-09-28T01:32:13;89212.59;;;14.76;75.89
10366;BME280;5229;41.820;23.490;2022-09-28T01:34:45;89211.56;;;14.81;75.99
10366;BME280;5229;41.820;23.490;2022-09-28T01:37:17;89202.94;;;14.80;75.95
10366;BME280;5229;41.820;23.490;2022-09-28T01:39:47;89210.09;;;14.83;76.05
10366;BME280;5229;41.820;23.490;2022-09-28T01:42:21;89211.63;;;14.84;76.14
10366;BME280;5229;41.820;23.490;2022-09-28T01:44:51;89216.84;;;14.84;76.13
10366;BME280;5229;41.820;23.490;2022-09-28T01:47:22;89217.22;;;14.86;76.10
10366;BME280;5229;41.820;23.490;2022-09-28T01:49:54;89230.75;;;14.92;75.75
10366;BME280;5229;41.820;23.490;2022-09-28T01:52:26;89226.28;;;14.92;75.67
10366;BME280;5229;41.820;23.490;2022-09-28T01:54:57;89231.09;;;14.90;75.53
10366;BME280;5229;41.820;23.490;2022-09-28T01:57:33;89228.09;;;14.88;75.60
10366;BME280;5229;41.820;23.490;2022-09-28T02:00:04;89235.13;;;14.84;75.55
10366;BME280;5229;41.820;23.490;2022-09-28T02:02:37;89246.97;;;14.82;75.55
10366;BME280;5229;41.820;23.490;2022-09-28T02:05:07;89242.09;;;14.80;75.91
10366;BME280;5229;41.820;23.490;2022-09-28T02:07:39;89240.59;;;14.79;75.49
10366;BME280;5229;41.820;23.490;2022-09-28T02:10:12;89245.81;;;14.79;75.77
10366;BME280;5229;41.820;23.490;2022-09-28T02:12:43;89244.72;;;14.80;75.55
10366;BME280;5229;41.820;23.490;2022-09-28T02:15:16;89238.00;;;14.79;75.41
10366;BME280;5229;41.820;23.490;2022-09-28T02:17:44;89241.97;;;14.73;75.34
10366;BME280;5229;41.820;23.490;2022-09-28T02:20:11;89246.81;;;14.71;75.57
10366;BME280;5229;41.820;23.490;2022-09-28T02:22:41;89237.06;;;14.68;75.46
10366;BME280;5229;41.820;23.490;2022-09-28T02:25:10;89239.25;;;14.66;75.73
10366;BME280;5229;41.820;23.490;2022-09-28T02:27:44;89234.31;;;14.61;75.25
10366;BME280;5229;41.820;23.490;2022-09-28T02:30:16;89236.44;;;14.55;75.14
10366;BME280;5229;41.820;23.490;2022-09-28T02:32:46;89245.72;;;14.53;75.98
10366;BME280;5229;41.820;23.490;2022-09-28T02:35:16;89244.91;;;14.49;75.78
10366;BME280;5229;41.820;23.490;2022-09-28T02:37:43;89249.31;;;14.45;75.57
10366;BME280;5229;41.820;23.490;2022-09-28T02:40:12;89255.94;;;14.42;75.62
10366;BME280;5229;41.820;23.490;2022-09-28T02:42:50;89243.59;;;14.39;75.78
10366;BME280;5229;41.820;23.490;2022-09-28T02:45:29;89247.31;;;14.38;75.28
10366;BME280;5229;41.820;23.490;2022-09-28T02:48:17;89244.91;;;14.30;75.06
10366;BME280;5229;41.820;23.490;2022-09-28T02:50:52;89241.47;;;14.26;75.59
10366;BME280;5229;41.820;23.490;2022-09-28T02:53:44;89230.81;;;14.15;75.66
10366;BME280;5229;41.820;23.490;2022-09-28T02:56:24;89238.97;;;14.14;75.30
10366;BME280;5229;41.820;23.490;2022-09-28T02:59:06;89235.81;;;14.05;75.24
10366;BME280;5229;41.820;23.490;2022-09-28T03:01:44;89240.97;;;14.01;75.49
10366;BME280;5229;41.820;23.490;2022-09-28T03:04:23;89239.66;;;13.92;75.29
10366;BME280;5229;41.820;23.490;2022-09-28T03:06:58;89238.41;;;13.86;75.47
10366;BME280;5229;41.820;23.490;2022-09-28T03:09:31;89247.25;;;13.81;75.55
10366;BME280;5229;41.820;23.490;2022-09-28T03:12:02;89245.66;;;13.77;75.43
10366;BME280;5229;41.820;23.490;2022-09-28T03:14:33;89235.84;;;13.70;75.45
10366;BME280;5229;41.820;23.490;2022-09-28T03:17:00;89252.16;;;13.67;75.68
10366;BME280;5229;41.820;23.490;2022-09-28T03:19:30;89257.34;;;13.67;75.79
10366;BME280;5229;41.820;23.490;2022-09-28T03:21:58;89250.97;;;13.65;75.81
10366;BME280;5229;41.820;23.490;2022-09-28T03:24:25;89264.00;;;13.65;76.25
10366;BME280;5229;41.820;23.490;2022-09-28T03:26:52;89262.56;;;13.67;76.09
10366;BME280;5229;41.820;23.490;2022-09-28T03:29:19;89258.19;;;13.71;76.04
10366;BME280;5229;41.820;23.490;2022-09-28T03:31:47;89253.66;;;13.68;75.74
10366;BME280;5229;41.820;23.490;2022-09-28T03:34:14;89252.09;;;13.64;75.79
10366;BME280;5229;41.820;23.490;2022-09-28T03:36:41;89255.75;;;13.63;75.85
10366;BME280;5229;41.820;23.490;2022-09-28T03:39:08;89263.56;;;13.63;75.71
10366;BME280;5229;41.820;23.490;2022-09-28T03:41:35;89263.09;;;13.57;75.97
10366;BME280;5229;41.820;23.490;2022-09-28T03:44:02;89269.72;;;13.55;75.81
10366;BME280;5229;41.820;23.490;2022-09-28T03:46:29;89273.34;;;13.50;75.87
10366;BME280;5229;41.820;23.490;2022-09-28T03:48:57;89268.06;;;13.47;75.44
10366;BME280;5229;41.820;23.490;2022-09-28T03:51:24;89258.06;;;13.49;75.71
10366;BME280;5229;41.820;23.490;2022-09-28T03:53:51;89271.06;;;13.49;75.95
10366;BME280;5229;41.820;23.490;2022-09-28T03:56:18;89275.13;;;13.46;75.93
10366;BME280;5229;41.820;23.490;2022-09-28T03:58:45;89272.44;;;13.43;75.45
10366;BME280;5229;41.820;23.490;2022-09-28T04:01:13;89263.53;;;13.44;75.85
10366;BME280;5229;41.820;23.490;2022-09-28T04:03:41;89264.28;;;13.44;75.93
10366;BME280;5229;41.820;23.490;2022-09-28T04:06:10;89262.75;;;13.43;75.80
10366;BME280;5229;41.820;23.490;2022-09-28T04:08:37;89249.25;;;13.38;75.50
10366;BME280;5229;41.820;23.490;2022-09-28T04:11:04;89252.53;;;13.35;75.62
10366;BME280;5229;41.820;23.490;2022-09-28T04:13:31;89248.41;;;13.34;75.88
10366;BME280;5229;41.820;23.490;2022-09-28T04:15:59;89245.41;;;13.32;75.71
10366;BME280;5229;41.820;23.490;2022-09-28T04:18:26;89245.75;;;13.30;76.04
10366;BME280;5229;41.820;23.490;2022-09-28T04:21:00;89247.16;;;13.28;75.70
10366;BME280;5229;41.820;23.490;2022-09-28T04:23:32;89254.06;;;13.20;75.53
10366;BME280;5229;41.820;23.490;2022-09-28T04:25:59;89267.91;;;13.09;75.57
10366;BME280;5229;41.820;23.490;2022-09-28T04:28:26;89268.50;;;13.02;75.85
10366;BME280;5229;41.820;23.490;2022-09-28T04:31:15;89278.16;;;13.02;75.92
10366;BME280;5229;41.820;23.490;2022-09-28T04:33:42;89273.91;;;12.97;75.85
10366;BME280;5229;41.820;23.490;2022-09-28T04:36:09;89273.59;;;12.99;76.77
10366;BME280;5229;41.820;23.490;2022-09-28T04:38:38;89273.78;;;13.06;76.58
10366;BME280;5229;41.820;23.490;2022-09-28T04:41:06;89286.72;;;13.18;76.69
10366;BME280;5229;41.820;23.490;2022-09-28T04:43:33;89280.34;;;13.31;76.46
10366;BME280;5229;41.820;23.490;2022-09-28T04:46:00;89284.63;;;13.39;76.63
10366;BME280;5229;41.820;23.490;2022-09-28T04:48:28;89295.63;;;13.48;76.39
10366;BME280;5229;41.820;23.490;2022-09-28T04:50:56;89302.50;;;13.56;76.27
10366;BME280;5229;41.820;23.490;2022-09-28T04:53:24;89282.91;;;13.62;76.64
10366;BME280;5229;41.820;23.490;2022-09-28T04:55:57;89281.06;;;13.62;76.03
10366;BME280;5229;41.820;23.490;2022-09-28T04:58:24;89290.94;;;13.72;76.04
10366;BME280;5229;41.820;23.490;2022-09-28T05:00:51;89298.25;;;13.82;76.29
10366;BME280;5229;41.820;23.490;2022-09-28T05:03:18;89298.75;;;13.88;75.65
10366;BME280;5229;41.820;23.490;2022-09-28T05:05:46;89301.78;;;13.90;75.72
10366;BME280;5229;41.820;23.490;2022-09-28T05:08:13;89301.09;;;13.93;75.59
10366;BME280;5229;41.820;23.490;2022-09-28T05:10:40;89309.13;;;14.03;75.60
10366;BME280;5229;41.820;23.490;2022-09-28T05:13:09;89312.81;;;14.18;75.27
10366;BME280;5229;41.820;23.490;2022-09-28T05:15:37;89311.63;;;14.31;75.33
10366;BME280;5229;41.820;23.490;2022-09-28T05:18:05;89312.66;;;14.45;75.76
10366;BME280;5229;41.820;23.490;2022-09-28T05:20:32;89326.25;;;14.73;76.08
10366;BME280;5229;41.820;23.490;2022-09-28T05:22:59;89321.50;;;14.98;75.66
10366;BME280;5229;41.820;23.490;2022-09-28T05:25:26;89322.50;;;15.13;74.77
10366;BME280;5229;41.820;23.490;2022-09-28T05:27:54;89316.00;;;15.45;74.92
10366;BME280;5229;41.820;23.490;2022-09-28T05:30:23;89316.53;;;15.76;74.25
10366;BME280;5229;41.820;23.490;2022-09-28T05:32:50;89311.44;;;15.87;74.15
10366;BME280;5229;41.820;23.490;2022-09-28T05:35:17;89315.88;;;15.83;74.17
10366;BME280;5229;41.820;23.490;2022-09-28T05:37:44;89310.53;;;15.76;73.98
10366;BME280;5229;41.820;23.490;2022-09-28T05:40:11;89319.03;;;15.69;74.03
10366;BME280;5229;41.820;23.490;2022-09-28T05:42:38;89321.63;;;15.69;73.94
10366;BME280;5229;41.820;23.490;2022-09-28T05:45:07;89322.72;;;15.68;73.49
10366;BME280;5229;41.820;23.490;2022-09-28T05:47:37;89321.13;;;15.86;74.14
10366;BME280;5229;41.820;23.490;2022-09-28T05:50:06;89324.28;;;16.47;73.49
10366;BME280;5229;41.820;23.490;2022-09-28T05:52:33;89326.13;;;16.76;72.15
10366;BME280;5229;41.820;23.490;2022-09-28T05:55:00;89321.69;;;16.80;71.24
10366;BME280;5229;41.820;23.490;2022-09-28T05:57:27;89324.72;;;16.82;71.07
10366;BME280;5229;41.820;23.490;2022-09-28T05:59:55;89330.84;;;16.97;71.43
10366;BME280;5229;41.820;23.490;2022-09-28T06:02:22;89348.38;;;17.22;71.10
10366;BME280;5229;41.820;23.490;2022-09-28T06:04:50;89347.31;;;17.30;70.60
10366;BME280;5229;41.820;23.490;2022-09-28T06:07:18;89349.63;;;17.35;70.72
10366;BME280;5229;41.820;23.490;2022-09-28T06:09:45;89352.78;;;17.48;69.75
10366;BME280;5229;41.820;23.490;2022-09-28T06:12:12;89358.34;;;17.43;69.96
10366;BME280;5229;41.820;23.490;2022-09-28T06:14:40;89345.47;;;17.31;69.52
10366;BME280;5229;41.820;23.490;2022-09-28T06:17:07;89346.44;;;17.16;69.61
10366;BME280;5229;41.820;23.490;2022-09-28T06:19:33;89338.50;;;17.09;70.31
10366;BME280;5229;41.820;23.490;2022-09-28T06:22:02;89347.53;;;17.15;70.18
10366;BME280;5229;41.820;23.490;2022-09-28T06:24:28;89347.53;;;17.15;70.01
10366;BME280;5229;41.820;23.490;2022-09-28T06:26:55;89346.75;;;17.11;70.18
10366;BME280;5229;41.820;23.490;2022-09-28T06:29:22;89340.69;;;17.03;69.77
10366;BME280;5229;41.820;23.490;2022-09-28T06:31:49;89343.25;;;17.00;70.46
10366;BME280;5229;41.820;23.490;2022-09-28T06:34:16;89340.16;;;16.91;70.24
10366;BME280;5229;41.820;23.490;2022-09-28T06:36:43;89341.16;;;16.83;70.91
10366;BME280;5229;41.820;23.490;2022-09-28T06:39:11;89341.09;;;16.76;70.56
10366;BME280;5229;41.820;23.490;2022-09-28T06:41:38;89353.72;;;16.67;71.14
10366;BME280;5229;41.820;23.490;2022-09-28T06:44:05;89356.22;;;16.60;71.19
10366;BME280;5229;41.820;23.490;2022-09-28T06:46:32;89358.78;;;16.56;71.58
10366;BME280;5229;41.820;23.490;2022-09-28T06:48:59;89368.16;;;16.57;71.54
10366;BME280;5229;41.820;23.490;2022-09-28T06:51:27;89364.44;;;16.58;71.75
10366;BME280;5229;41.820;23.490;2022-09-28T06:53:54;89372.69;;;16.60;71.39
10366;BME280;5229;41.820;23.490;2022-09-28T06:56:22;89369.69;;;16.58;71.75
10366;BME280;5229;41.820;23.490;2022-09-28T06:58:49;89363.63;;;16.54;71.46
10366;BME280;5229;41.820;23.490;2022-09-28T07:01:16;89348.63;;;16.51;71.53
10366;BME280;5229;41.820;23.490;2022-09-28T07:03:43;89341.00;;;16.69;71.72
10366;BME280;5229;41.820;23.490;2022-09-28T07:06:10;89332.69;;;17.63;71.48
10366;BME280;5229;41.820;23.490;2022-09-28T07:08:37;89334.72;;;18.88;68.09
10366;BME280;5229;41.820;23.490;2022-09-28T07:11:05;89333.75;;;19.27;67.02
10366;BME280;5229;41.820;23.490;2022-09-28T07:13:34;89348.84;;;19.48;66.23
10366;BME280;5229;41.820;23.490;2022-09-28T07:16:02;89346.22;;;19.48;66.16
10366;BME280;5229;41.820;23.490;2022-09-28T07:18:29;89350.69;;;19.37;65.93
10366;BME280;5229;41.820;23.490;2022-09-28T07:20:56;89355.91;;;19.26;66.17
10366;BME280;5229;41.820;23.490;2022-09-28T07:23:24;89358.84;;;19.18;66.31
10366;BME280;5229;41.820;23.490;2022-09-28T07:25:52;89359.59;;;19.15;66.62
10366;BME280;5229;41.820;23.490;2022-09-28T07:28:18;89367.06;;;19.06;66.53
10366;BME280;5229;41.820;23.490;2022-09-28T07:30:47;89361.00;;;18.95;66.50
10366;BME280;5229;41.820;23.490;2022-09-28T07:33:15;89361.34;;;18.86;66.88
10366;BME280;5229;41.820;23.490;2022-09-28T07:35:49;89362.00;;;18.73;66.64
10366;BME280;5229;41.820;23.490;2022-09-28T07:38:17;89370.19;;;18.61;67.04
10366;BME280;5229;41.820;23.490;2022-09-28T07:40:44;89369.81;;;18.59;67.10
10366;BME280;5229;41.820;23.490;2022-09-28T07:43:28;89374.78;;;18.74;67.14
10366;BME280;5229;41.820;23.490;2022-09-28T07:45:56;89367.09;;;19.13;66.70
10366;BME280;5229;41.820;23.490;2022-09-28T07:48:23;89368.38;;;19.50;65.51
10366;BME280;5229;41.820;23.490;2022-09-28T07:50:51;89362.13;;;20.18;64.49
10366;BME280;5229;41.820;23.490;2022-09-28T07:53:20;89373.94;;;21.45;62.00
10366;BME280;5229;41.820;23.490;2022-09-28T07:55:50;89378.28;;;21.94;60.41
10366;BME280;5229;41.820;23.490;2022-09-28T07:58:17;89382.88;;;21.79;60.55
10366;BME280;5229;41.820;23.490;2022-09-28T08:00:45;89386.03;;;21.46;60.93
10366;BME280;5229;41.820;23.490;2022-09-28T08:03:14;89379.69;;;21.19;61.53
10366;BME280;5229;41.820;23.490;2022-09-28T08:05:42;89373.38;;;20.96;61.68
10366;BME280;5229;41.820;23.490;2022-09-28T08:08:11;89376.03;;;20.78;62.15
10366;BME280;5229;41.820;23.490;2022-09-28T08:10:38;89380.16;;;20.65;62.40
10366;BME280;5229;41.820;23.490;2022-09-28T08:13:07;89389.22;;;20.50;62.49
10366;BME280;5229;41.820;23.490;2022-09-28T08:15:34;89386.59;;;20.43;62.95
10366;BME280;5229;41.820;23.490;2022-09-28T08:18:01;89389.97;;;20.33;62.92
10366;BME280;5229;41.820;23.490;2022-09-28T08:20:30;89392.97;;;20.32;62.83
10366;BME280;5229;41.820;23.490;2022-09-28T08:23:14;89398.97;;;20.25;63.04
10366;BME280;5229;41.820;23.490;2022-09-28T08:25:45;89391.84;;;20.15;63.50
10366;BME280;5229;41.820;23.490;2022-09-28T08:28:13;89382.06;;;20.12;63.79
10366;BME280;5229;41.820;23.490;2022-09-28T08:30:42;89388.44;;;20.14;64.48
10366;BME280;5229;41.820;23.490;2022-09-28T08:33:09;89400.13;;;20.24;64.00
10366;BME280;5229;41.820;23.490;2022-09-28T08:35:38;89396.75;;;20.38;63.77
10366;BME280;5229;41.820;23.490;2022-09-28T08:38:06;89395.97;;;20.41;63.45
10366;BME280;5229;41.820;23.490;2022-09-28T08:40:36;89389.97;;;20.44;63.73
10366;BME280;5229;41.820;23.490;2022-09-28T08:43:21;89394.50;;;20.57;63.27
10366;BME280;5229;41.820;23.490;2022-09-28T08:45:52;89394.38;;;21.27;62.68
10366;BME280;5229;41.820;23.490;2022-09-28T08:48:24;89395.13;;;22.68;59.52
10366;BME280;5229;41.820;23.490;2022-09-28T08:51:17;89396.56;;;23.58;57.10
10366;BME280;5229;41.820;23.490;2022-09-28T08:53:48;89397.28;;;23.58;56.99
10366;BME280;5229;41.820;23.490;2022-09-28T08:56:25;89385.16;;;23.27;57.54
10366;BME280;5229;41.820;23.490;2022-09-28T08:58:57;89374.44;;;23.01;58.28
10366;BME280;5229;41.820;23.490;2022-09-28T09:01:30;89381.44;;;22.80;58.75
10366;BME280;5229;41.820;23.490;2022-09-28T09:03:58;89381.09;;;22.75;59.23
10366;BME280;5229;41.820;23.490;2022-09-28T09:06:35;89391.88;;;22.95;59.21
10366;BME280;5229;41.820;23.490;2022-09-28T09:09:14;89383.44;;;23.07;58.47
10366;BME280;5229;41.820;23.490;2022-09-28T09:11:51;89382.09;;;23.29;57.93
10366;BME280;5229;41.820;23.490;2022-09-28T09:17:29;89366.03;;;25.48;54.46
10366;BME280;5229;41.820;23.490;2022-09-28T09:20:09;89369.56;;;26.87;51.22
10366;BME280;5229;41.820;23.490;2022-09-28T09:22:50;89376.75;;;28.58;48.02
10366;BME280;5229;41.820;23.490;2022-09-28T09:25:25;89383.50;;;29.81;45.62
10366;BME280;5229;41.820;23.490;2022-09-28T09:28:06;89381.09;;;29.74;44.76
10366;BME280;5229;41.820;23.490;2022-09-28T09:30:45;89382.06;;;29.33;43.63
10366;BME280;5229;41.820;23.490;2022-09-28T09:33:48;89388.28;;;28.93;43.84
10366;BME280;5229;41.820;23.490;2022-09-28T09:36:29;89389.47;;;29.51;42.85
10366;BME280;5229;41.820;23.490;2022-09-28T09:39:12;89380.41;;;30.78;40.54
10366;BME280;5229;41.820;23.490;2022-09-28T09:41:55;89391.47;;;32.27;38.11
10366;BME280;5229;41.820;23.490;2022-09-28T09:44:52;89388.16;;;33.43;35.64
10366;BME280;5229;41.820;23.490;2022-09-28T09:47:27;89385.31;;;34.46;32.90
10366;BME280;5229;41.820;23.490;2022-09-28T09:49:58;89381.34;;;35.48;30.69
10366;BME280;5229;41.820;23.490;2022-09-28T09:52:31;89390.72;;;36.13;30.01
10366;BME280;5229;41.820;23.490;2022-09-28T09:55:06;89390.75;;;36.59;28.14
10366;BME280;5229;41.820;23.490;2022-09-28T09:57:41;89389.41;;;37.00;27.01
10366;BME280;5229;41.820;23.490;2022-09-28T10:00:11;89396.66;;;37.45;25.71
10366;BME280;5229;41.820;23.490;2022-09-28T10:02:40;89384.31;;;37.69;25.09
10366;BME280;5229;41.820;23.490;2022-09-28T10:05:18;89383.63;;;37.85;24.68
10366;BME280;5229;41.820;23.490;2022-09-28T10:07:49;89378.75;;;37.95;24.38
10366;BME280;5229;41.820;23.490;2022-09-28T10:10:24;89386.75;;;38.15;23.79
10366;BME280;5229;41.820;23.490;2022-09-28T10:12:52;89390.19;;;38.16;23.44
10366;BME280;5229;41.820;23.490;2022-09-28T10:15:22;89384.34;;;38.34;23.19
10366;BME280;5229;41.820;23.490;2022-09-28T10:17:50;89383.66;;;38.50;23.37
10366;BME280;5229;41.820;23.490;2022-09-28T10:20:18;89384.94;;;38.71;22.01
10366;BME280;5229;41.820;23.490;2022-09-28T10:22:45;89378.72;;;38.54;22.29
10366;BME280;5229;41.820;23.490;2022-09-28T10:25:13;89379.91;;;38.36;22.16
10366;BME280;5229;41.820;23.490;2022-09-28T10:27:43;89373.19;;;37.67;22.49
10366;BME280;5229;41.820;23.490;2022-09-28T10:30:14;89366.78;;;37.28;22.48
10366;BME280;5229;41.820;23.490;2022-09-28T10:32:44;89364.50;;;36.90;22.88
10366;BME280;5229;41.820;23.490;2022-09-28T10:35:23;89356.13;;;36.37;23.28
10366;BME280;5229;41.820;23.490;2022-09-28T10:37:54;89357.53;;;35.87;23.24
10366;BME280;5229;41.820;23.490;2022-09-28T10:40:40;89350.13;;;35.13;24.42
10366;BME280;5229;41.820;23.490;2022-09-28T10:43:19;89355.22;;;34.91;24.50
10366;BME280;5229;41.820;23.490;2022-09-28T10:45:47;89357.31;;;34.14;25.61
10366;BME280;5229;41.820;23.490;2022-09-28T10:48:18;89365.44;;;33.11;26.80
10366;BME280;5229;41.820;23.490;2022-09-28T10:51:02;89352.44;;;31.99;27.44
10366;BME280;5229;41.820;23.490;2022-09-28T10:53:30;89348.50;;;31.19;28.56
10366;BME280;5229;41.820;23.490;2022-09-28T10:55:59;89339.66;;;30.52;29.78
10366;BME280;5229;41.820;23.490;2022-09-28T10:58:33;89338.41;;;29.92;29.57
10366;BME280;5229;41.820;23.490;2022-09-28T11:01:05;89346.56;;;29.33;29.89
10366;BME280;5229;41.820;23.490;2022-09-28T11:03:45;89332.75;;;28.75;30.14
10366;BME280;5229;41.820;23.490;2022-09-28T11:06:14;89328.06;;;28.17;30.83
10366;BME280;5229;41.820;23.490;2022-09-28T11:08:42;89324.75;;;27.71;31.60
10366;BME280;5229;41.820;23.490;2022-09-28T11:11:11;89326.56;;;27.33;32.46
10366;BME280;5229;41.820;23.490;2022-09-28T11:13:43;89317.13;;;27.00;33.08
10366;BME280;5229;41.820;23.490;2022-09-28T11:16:22;89311.66;;;26.59;33.29
10366;BME280;5229;41.820;23.490;2022-09-28T11:18:50;89316.16;;;26.30;34.24
10366;BME280;5229;41.820;23.490;2022-09-28T11:21:19;89315.94;;;26.05;34.84
10366;BME280;5229;41.820;23.490;2022-09-28T11:24:02;89313.38;;;25.82;35.35
10366;BME280;5229;41.820;23.490;2022-09-28T11:26:40;89316.13;;;25.59;35.73
10366;BME280;5229;41.820;23.490;2022-09-28T11:29:33;89312.06;;;25.35;35.83
10366;BME280;5229;41.820;23.490;2022-09-28T11:32:02;89313.78;;;25.22;35.84
10366;BME280;5229;41.820;23.490;2022-09-28T11:34:33;89309.56;;;25.05;35.98
10366;BME280;5229;41.820;23.490;2022-09-28T11:37:21;89303.94;;;24.80;35.68
10366;BME280;5229;41.820;23.490;2022-09-28T11:39:58;89302.22;;;24.70;36.33
10366;BME280;5229;41.820;23.490;2022-09-28T11:42:37;89303.88;;;24.60;36.51
10366;BME280;5229;41.820;23.490;2022-09-28T11:45:23;89301.75;;;24.52;37.02
10366;BME280;5229;41.820;23.490;2022-09-28T11:47:56;89296.56;;;24.45;37.14
10366;BME280;5229;41.820;23.490;2022-09-28T11:50:34;89305.03;;;24.36;37.33
10366;BME280;5229;41.820;23.490;2022-09-28T11:53:15;89307.44;;;24.27;37.24
10366;BME280;5229;41.820;23.490;2022-09-28T11:55:47;89309.41;;;24.23;37.39
10366;BME280;5229;41.820;23.490;2022-09-28T11:58:24;89303.47;;;24.16;37.76
10366;BME280;5229;41.820;23.490;2022-09-28T12:00:59;89298.56;;;24.14;37.52
10366;BME280;5229;41.820;23.490;2022-09-28T12:03:29;89296.38;;;24.09;37.99
10366;BME280;5229;41.820;23.490;2022-09-28T12:06:04;89286.28;;;24.01;38.11
10366;BME280;5229;41.820;23.490;2022-09-28T12:08:34;89290.06;;;24.00;38.79
10366;BME280;5229;41.820;23.490;2022-09-28T12:11:06;89282.19;;;23.96;38.37
10366;BME280;5229;41.820;23.490;2022-09-28T12:13:38;89285.69;;;23.86;38.17
10366;BME280;5229;41.820;23.490;2022-09-28T12:16:08;89283.91;;;23.80;38.10
10366;BME280;5229;41.820;23.490;2022-09-28T12:18:44;89282.06;;;23.77;38.31
10366;BME280;5229;41.820;23.490;2022-09-28T12:21:27;89281.75;;;23.71;38.46
10366;BME280;5229;41.820;23.490;2022-09-28T12:24:02;89286.69;;;23.69;38.42
10366;BME280;5229;41.820;23.490;2022-09-28T12:26:34;89283.31;;;23.69;38.48
10366;BME280;5229;41.820;23.490;2022-09-28T12:29:09;89282.25;;;23.63;38.60
10366;BME280;5229;41.820;23.490;2022-09-28T12:31:44;89281.25;;;23.53;38.88
10366;BME280;5229;41.820;23.490;2022-09-28T12:34:14;89275.66;;;23.48;38.69
10366;BME280;5229;41.820;23.490;2022-09-28T12:36:49;89279.47;;;23.43;38.51
10366;BME280;5229;41.820;23.490;2022-09-28T12:39:36;89282.63;;;23.35;38.56
10366;BME280;5229;41.820;23.490;2022-09-28T12:42:16;89272.13;;;23.28;38.93
10366;BME280;5229;41.820;23.490;2022-09-28T12:45:01;89277.00;;;23.29;39.54
10366;BME280;5229;41.820;23.490;2022-09-28T12:47:49;89272.91;;;23.25;39.75
10366;BME280;5229;41.820;23.490;2022-09-28T12:50:24;89282.75;;;23.24;39.58
10366;BME280;5229;41.820;23.490;2022-09-28T12:53:15;89280.50;;;23.19;40.29
10366;BME280;5229;41.820;23.490;2022-09-28T12:55:51;89290.31;;;23.22;39.96
10366;BME280;5229;41.820;23.490;2022-09-28T12:58:33;89291.44;;;23.25;40.27
10366;BME280;5229;41.820;23.490;2022-09-28T13:01:10;89286.91;;;23.25;40.46
10366;BME280;5229;41.820;23.490;2022-09-28T13:04:14;89295.22;;;23.20;41.52
10366;BME280;5229;41.820;23.490;2022-09-28T13:06:54;89298.56;;;23.28;41.18
10366;BME280;5229;41.820;23.490;2022-09-28T13:09:23;89298.56;;;23.28;40.73
10366;BME280;5229;41.820;23.490;2022-09-28T13:12:03;89295.53;;;23.29;41.11
10366;BME280;5229;41.820;23.490;2022-09-28T13:17:42;89294.28;;;23.41;41.88
10366;BME280;5229;41.820;23.490;2022-09-28T13:20:24;89281.03;;;23.41;42.36
10366;BME280;5229;41.820;23.490;2022-09-28T13:23:01;89288.97;;;23.41;43.44
10366;BME280;5229;41.820;23.490;2022-09-28T13:25:32;89298.41;;;23.42;44.54
10366;BME280;5229;41.820;23.490;2022-09-28T13:28:01;89297.53;;;23.52;44.91
10366;BME280;5229;41.820;23.490;2022-09-28T13:30:29;89291.44;;;23.55;45.32